sensor_id;sensor_type;location;lat;lon;timestamp;temperature;humidity
51811;DHT22;52468;40.116;18.296;2023-07-29T00:01:29;25.10;67.40
51811;DHT22;52468;40.116;18.296;2023-07-29T00:03:57;25.00;67.60
51811;DHT22;52468;40.116;18.296;2023-07-29T00:06:26;25.00;67.60
51811;DHT22;52468;40.116;18.296;2023-07-29T00:08:54;25.00;67.80
51811;DHT22;52468;40.116;18.296;2023-07-29T00:11:22;25.00;68.00
51811;DHT22;52468;40.116;18.296;2023-07-29T00:13:49;25.00;68.10
51811;DHT22;52468;40.116;18.296;2023-07-29T00:16:18;24.90;68.40
51811;DHT22;52468;40.116;18.296;2023-07-29T00:18:49;24.90;68.60
51811;DHT22;52468;40.116;18.296;2023-07-29T00:21:17;24.90;68.60
51811;DHT22;52468;40.116;18.296;2023-07-29T00:23:45;24.90;68.70
51811;DHT22;52468;40.116;18.296;2023-07-29T00:26:13;24.80;68.70
51811;DHT22;52468;40.116;18.296;2023-07-29T00:28:41;24.90;68.80
51811;DHT22;52468;40.116;18.296;2023-07-29T00:31:09;24.80;68.90
51811;DHT22;52468;40.116;18.296;2023-07-29T00:33:38;24.80;69.00
51811;DHT22;52468;40.116;18.296;2023-07-29T00:36:06;24.70;69.10
51811;DHT22;52468;40.116;18.296;2023-07-29T00:38:34;24.80;69.10
51811;DHT22;52468;40.116;18.296;2023-07-29T00:41:05;24.80;69.20
51811;DHT22;52468;40.116;18.296;2023-07-29T00:43:34;24.70;69.20
51811;DHT22;52468;40.116;18.296;2023-07-29T00:46:02;24.70;69.30
51811;DHT22;52468;40.116;18.296;2023-07-29T00:48:30;24.70;69.40
51811;DHT22;52468;40.116;18.296;2023-07-29T00:50:58;24.60;69.50
51811;DHT22;52468;40.116;18.296;2023-07-29T00:53:28;24.70;69.50
51811;DHT22;52468;40.116;18.296;2023-07-29T00:55:55;24.60;69.60
51811;DHT22;52468;40.116;18.296;2023-07-29T00:58:24;24.60;69.80
51811;DHT22;52468;40.116;18.296;2023-07-29T01:00:52;24.60;69.90
51811;DHT22;52468;40.116;18.296;2023-07-29T01:03:21;24.60;70.10
51811;DHT22;52468;40.116;18.296;2023-07-29T01:06:12;24.50;70.30
51811;DHT22;52468;40.116;18.296;2023-07-29T01:08:58;24.50;70.40
51811;DHT22;52468;40.116;18.296;2023-07-29T01:14:06;24.50;70.50
51811;DHT22;52468;40.116;18.296;2023-07-29T01:16:46;24.50;70.60
51811;DHT22;52468;40.116;18.296;2023-07-29T01:19:50;24.40;70.70
51811;DHT22;52468;40.116;18.296;2023-07-29T01:22:23;24.50;70.80
51811;DHT22;52468;40.116;18.296;2023-07-29T01:24:51;24.40;70.90
51811;DHT22;52468;40.116;18.296;2023-07-29T01:27:19;24.40;71.00
51811;DHT22;52468;40.116;18.296;2023-07-29T01:29:47;24.40;71.10
51811;DHT22;52468;40.116;18.296;2023-07-29T01:32:25;24.30;71.10
51811;DHT22;52468;40.116;18.296;2023-07-29T01:35:45;24.30;71.30
51811;DHT22;52468;40.116;18.296;2023-07-29T01:38:33;24.30;71.30
51811;DHT22;52468;40.116;18.296;2023-07-29T01:41:03;24.30;71.40
51811;DHT22;52468;40.116;18.296;2023-07-29T01:43:32;24.30;71.50
51811;DHT22;52468;40.116;18.296;2023-07-29T01:46:00;24.20;71.50
51811;DHT22;52468;40.116;18.296;2023-07-29T01:48:28;24.20;71.70
51811;DHT22;52468;40.116;18.296;2023-07-29T01:50:58;24.20;71.80
51811;DHT22;52468;40.116;18.296;2023-07-29T01:53:26;24.10;71.90
51811;DHT22;52468;40.116;18.296;2023-07-29T01:55:54;24.10;72.00
51811;DHT22;52468;40.116;18.296;2023-07-29T01:58:22;24.00;72.20
51811;DHT22;52468;40.116;18.296;2023-07-29T02:00:50;24.00;72.30
51811;DHT22;52468;40.116;18.296;2023-07-29T02:03:18;24.00;72.40
51811;DHT22;52468;40.116;18.296;2023-07-29T02:05:46;24.00;72.30
51811;DHT22;52468;40.116;18.296;2023-07-29T02:08:14;24.00;72.30
51811;DHT22;52468;40.116;18.296;2023-07-29T02:10:41;24.00;72.20
51811;DHT22;52468;40.116;18.296;2023-07-29T02:13:13;24.00;72.20
51811;DHT22;52468;40.116;18.296;2023-07-29T02:15:41;23.90;72.30
51811;DHT22;52468;40.116;18.296;2023-07-29T02:18:08;23.90;72.20
51811;DHT22;52468;40.116;18.296;2023-07-29T02:20:36;23.90;72.30
51811;DHT22;52468;40.116;18.296;2023-07-29T02:23:04;23.90;72.30
51811;DHT22;52468;40.116;18.296;2023-07-29T02:25:35;23.80;72.20
51811;DHT22;52468;40.116;18.296;2023-07-29T02:28:04;23.80;72.00
51811;DHT22;52468;40.116;18.296;2023-07-29T02:30:32;23.80;71.80
51811;DHT22;52468;40.116;18.296;2023-07-29T02:33:00;23.70;71.50
51811;DHT22;52468;40.116;18.296;2023-07-29T02:35:29;23.70;71.40
51811;DHT22;52468;40.116;18.296;2023-07-29T02:37:59;23.70;71.40
51811;DHT22;52468;40.116;18.296;2023-07-29T02:40:27;23.70;71.40
51811;DHT22;52468;40.116;18.296;2023-07-29T02:42:57;23.70;71.40
51811;DHT22;52468;40.116;18.296;2023-07-29T02:45:25;23.60;71.30
51811;DHT22;52468;40.116;18.296;2023-07-29T02:47:52;23.60;71.30
51811;DHT22;52468;40.116;18.296;2023-07-29T02:50:21;23.50;71.30
51811;DHT22;52468;40.116;18.296;2023-07-29T02:52:49;23.50;71.20
51811;DHT22;52468;40.116;18.296;2023-07-29T02:55:18;23.40;71.30
51811;DHT22;52468;40.116;18.296;2023-07-29T02:57:46;23.40;71.30
51811;DHT22;52468;40.116;18.296;2023-07-29T03:00:14;23.40;71.20
51811;DHT22;52468;40.116;18.296;2023-07-29T03:02:42;23.30;71.30
51811;DHT22;52468;40.116;18.296;2023-07-29T03:05:10;23.50;71.30
51811;DHT22;52468;40.116;18.296;2023-07-29T03:07:38;23.40;71.40
51811;DHT22;52468;40.116;18.296;2023-07-29T03:10:06;23.40;71.50
51811;DHT22;52468;40.116;18.296;2023-07-29T03:12:34;23.40;71.60
51811;DHT22;52468;40.116;18.296;2023-07-29T03:15:02;23.30;71.80
51811;DHT22;52468;40.116;18.296;2023-07-29T03:17:31;23.30;72.10
51811;DHT22;52468;40.116;18.296;2023-07-29T03:19:59;23.30;72.30
51811;DHT22;52468;40.116;18.296;2023-07-29T03:22:26;23.30;72.30
51811;DHT22;52468;40.116;18.296;2023-07-29T03:24:54;23.30;72.30
51811;DHT22;52468;40.116;18.296;2023-07-29T03:27:22;23.30;72.40
51811;DHT22;52468;40.116;18.296;2023-07-29T03:29:50;23.30;72.40
51811;DHT22;52468;40.116;18.296;2023-07-29T03:32:18;23.30;72.40
51811;DHT22;52468;40.116;18.296;2023-07-29T03:34:46;23.20;72.40
51811;DHT22;52468;40.116;18.296;2023-07-29T03:37:14;23.30;72.50
51811;DHT22;52468;40.116;18.296;2023-07-29T03:39:42;23.30;72.50
51811;DHT22;52468;40.116;18.296;2023-07-29T03:42:10;23.40;72.50
51811;DHT22;52468;40.116;18.296;2023-07-29T03:44:38;23.30;72.60
51811;DHT22;52468;40.116;18.296;2023-07-29T03:47:07;23.50;72.60
51811;DHT22;52468;40.116;18.296;2023-07-29T03:49:36;23.50;72.70
51811;DHT22;52468;40.116;18.296;2023-07-29T03:52:06;23.50;72.90
51811;DHT22;52468;40.116;18.296;2023-07-29T03:54:33;23.50;72.90
51811;DHT22;52468;40.116;18.296;2023-07-29T03:57:01;23.60;72.90
51811;DHT22;52468;40.116;18.296;2023-07-29T03:59:29;23.80;72.70
51811;DHT22;52468;40.116;18.296;2023-07-29T04:01:57;23.90;73.30
51811;DHT22;52468;40.116;18.296;2023-07-29T04:04:25;24.00;73.40
51811;DHT22;52468;40.116;18.296;2023-07-29T04:06:54;24.10;73.50
51811;DHT22;52468;40.116;18.296;2023-07-29T04:09:22;24.30;73.70
51811;DHT22;52468;40.116;18.296;2023-07-29T04:11:51;24.50;73.80
51811;DHT22;52468;40.116;18.296;2023-07-29T04:14:19;24.60;73.50
51811;DHT22;52468;40.116;18.296;2023-07-29T04:16:47;24.80;73.00
51811;DHT22;52468;40.116;18.296;2023-07-29T04:19:17;25.00;72.70
51811;DHT22;52468;40.116;18.296;2023-07-29T04:21:45;25.20;71.90
51811;DHT22;52468;40.116;18.296;2023-07-29T04:24:14;25.40;71.40
51811;DHT22;52468;40.116;18.296;2023-07-29T04:26:41;25.50;70.60
51811;DHT22;52468;40.116;18.296;2023-07-29T04:29:09;25.60;70.20
51811;DHT22;52468;40.116;18.296;2023-07-29T04:31:37;25.80;70.00
51811;DHT22;52468;40.116;18.296;2023-07-29T04:34:05;26.00;69.70
51811;DHT22;52468;40.116;18.296;2023-07-29T04:36:33;26.10;69.70
51811;DHT22;52468;40.116;18.296;2023-07-29T04:39:01;26.40;69.40
51811;DHT22;52468;40.116;18.296;2023-07-29T04:41:30;26.60;69.00
51811;DHT22;52468;40.116;18.296;2023-07-29T04:43:58;26.80;68.80
51811;DHT22;52468;40.116;18.296;2023-07-29T04:46:26;26.90;68.90
51811;DHT22;52468;40.116;18.296;2023-07-29T04:48:54;26.80;69.60
51811;DHT22;52468;40.116;18.296;2023-07-29T04:51:23;26.90;69.60
51811;DHT22;52468;40.116;18.296;2023-07-29T04:53:51;27.00;69.50
51811;DHT22;52468;40.116;18.296;2023-07-29T04:56:19;27.10;69.40
51811;DHT22;52468;40.116;18.296;2023-07-29T04:58:47;27.20;69.30
51811;DHT22;52468;40.116;18.296;2023-07-29T05:01:15;27.30;69.10
51811;DHT22;52468;40.116;18.296;2023-07-29T05:03:43;27.40;69.20
51811;DHT22;52468;40.116;18.296;2023-07-29T05:06:12;27.50;69.10
51811;DHT22;52468;40.116;18.296;2023-07-29T05:08:40;27.50;69.00
51811;DHT22;52468;40.116;18.296;2023-07-29T05:23:42;27.60;68.80
51811;DHT22;52468;40.116;18.296;2023-07-29T05:26:10;28.10;67.80
51811;DHT22;52468;40.116;18.296;2023-07-29T05:28:38;28.30;66.40
51811;DHT22;52468;40.116;18.296;2023-07-29T05:31:06;28.40;66.10
51811;DHT22;52468;40.116;18.296;2023-07-29T05:33:34;28.50;65.60
51811;DHT22;52468;40.116;18.296;2023-07-29T05:36:04;28.60;65.40
51811;DHT22;52468;40.116;18.296;2023-07-29T05:38:32;28.80;65.00
51811;DHT22;52468;40.116;18.296;2023-07-29T05:41:00;28.90;65.10
51811;DHT22;52468;40.116;18.296;2023-07-29T05:43:28;29.00;64.30
51811;DHT22;52468;40.116;18.296;2023-07-29T05:45:56;29.10;64.10
51811;DHT22;52468;40.116;18.296;2023-07-29T05:48:24;29.20;64.10
51811;DHT22;52468;40.116;18.296;2023-07-29T05:50:52;29.40;63.80
51811;DHT22;52468;40.116;18.296;2023-07-29T05:53:20;29.50;63.80
51811;DHT22;52468;40.116;18.296;2023-07-29T05:55:48;29.50;63.60
51811;DHT22;52468;40.116;18.296;2023-07-29T05:58:16;29.60;63.20
51811;DHT22;52468;40.116;18.296;2023-07-29T06:00:44;29.60;63.00
51811;DHT22;52468;40.116;18.296;2023-07-29T06:03:12;29.70;62.90
51811;DHT22;52468;40.116;18.296;2023-07-29T06:05:39;29.60;62.50
51811;DHT22;52468;40.116;18.296;2023-07-29T06:08:08;29.80;62.50
51811;DHT22;52468;40.116;18.296;2023-07-29T06:10:36;29.70;61.90
51811;DHT22;52468;40.116;18.296;2023-07-29T06:13:04;29.90;61.90
51811;DHT22;52468;40.116;18.296;2023-07-29T06:15:33;30.10;61.30
51811;DHT22;52468;40.116;18.296;2023-07-29T06:18:01;30.30;60.50
51811;DHT22;52468;40.116;18.296;2023-07-29T06:20:29;30.40;59.60
51811;DHT22;52468;40.116;18.296;2023-07-29T06:22:57;30.50;58.30
51811;DHT22;52468;40.116;18.296;2023-07-29T06:25:25;30.50;57.40
51811;DHT22;52468;40.116;18.296;2023-07-29T06:27:53;30.60;55.70
51811;DHT22;52468;40.116;18.296;2023-07-29T06:30:21;30.60;55.10
51811;DHT22;52468;40.116;18.296;2023-07-29T06:32:48;30.80;55.10
51811;DHT22;52468;40.116;18.296;2023-07-29T06:35:16;30.90;53.00
51811;DHT22;52468;40.116;18.296;2023-07-29T06:37:44;30.90;53.60
51811;DHT22;52468;40.116;18.296;2023-07-29T06:40:12;30.90;53.90
51811;DHT22;52468;40.116;18.296;2023-07-29T06:42:40;31.00;54.30
51811;DHT22;52468;40.116;18.296;2023-07-29T06:45:08;31.10;53.40
51811;DHT22;52468;40.116;18.296;2023-07-29T06:47:37;31.00;52.60
51811;DHT22;52468;40.116;18.296;2023-07-29T06:50:05;31.10;51.70
51811;DHT22;52468;40.116;18.296;2023-07-29T06:52:33;31.50;50.90
51811;DHT22;52468;40.116;18.296;2023-07-29T06:55:01;31.60;50.90
51811;DHT22;52468;40.116;18.296;2023-07-29T06:57:29;31.80;50.30
51811;DHT22;52468;40.116;18.296;2023-07-29T06:59:57;31.80;49.50
51811;DHT22;52468;40.116;18.296;2023-07-29T07:02:25;31.80;49.70
51811;DHT22;52468;40.116;18.296;2023-07-29T07:04:53;32.00;49.00
51811;DHT22;52468;40.116;18.296;2023-07-29T07:07:21;32.10;49.00
51811;DHT22;52468;40.116;18.296;2023-07-29T07:09:49;32.40;48.70
51811;DHT22;52468;40.116;18.296;2023-07-29T07:12:16;32.60;47.60
51811;DHT22;52468;40.116;18.296;2023-07-29T07:14:44;32.60;46.50
51811;DHT22;52468;40.116;18.296;2023-07-29T07:17:12;32.70;46.00
51811;DHT22;52468;40.116;18.296;2023-07-29T07:19:40;32.80;45.20
51811;DHT22;52468;40.116;18.296;2023-07-29T07:22:08;32.70;45.50
51811;DHT22;52468;40.116;18.296;2023-07-29T07:24:36;32.80;45.00
51811;DHT22;52468;40.116;18.296;2023-07-29T07:27:04;33.00;44.30
51811;DHT22;52468;40.116;18.296;2023-07-29T07:29:32;33.10;44.00
51811;DHT22;52468;40.116;18.296;2023-07-29T07:43:20;33.30;42.20
51811;DHT22;52468;40.116;18.296;2023-07-29T07:45:48;33.30;41.70
51811;DHT22;52468;40.116;18.296;2023-07-29T07:48:16;33.60;41.00
51811;DHT22;52468;40.116;18.296;2023-07-29T07:50:44;33.80;40.00
51811;DHT22;52468;40.116;18.296;2023-07-29T07:53:12;33.70;39.80
51811;DHT22;52468;40.116;18.296;2023-07-29T07:55:40;33.80;39.50
51811;DHT22;52468;40.116;18.296;2023-07-29T07:58:08;33.90;37.60
51811;DHT22;52468;40.116;18.296;2023-07-29T08:00:36;33.80;36.60
51811;DHT22;52468;40.116;18.296;2023-07-29T08:03:04;33.70;38.00
51811;DHT22;52468;40.116;18.296;2023-07-29T08:05:31;33.70;38.70
51811;DHT22;52468;40.116;18.296;2023-07-29T08:07:59;33.90;38.40
51811;DHT22;52468;40.116;18.296;2023-07-29T08:10:27;34.00;38.60
51811;DHT22;52468;40.116;18.296;2023-07-29T08:12:55;34.20;38.30
51811;DHT22;52468;40.116;18.296;2023-07-29T08:15:23;34.20;37.40
51811;DHT22;52468;40.116;18.296;2023-07-29T08:17:50;34.50;37.70
51811;DHT22;52468;40.116;18.296;2023-07-29T08:20:18;34.50;37.10
51811;DHT22;52468;40.116;18.296;2023-07-29T08:22:46;34.50;36.60
51811;DHT22;52468;40.116;18.296;2023-07-29T08:25:14;34.40;36.70
51811;DHT22;52468;40.116;18.296;2023-07-29T08:27:42;34.30;37.20
51811;DHT22;52468;40.116;18.296;2023-07-29T08:30:10;34.40;37.50
51811;DHT22;52468;40.116;18.296;2023-07-29T08:32:38;34.50;37.10
51811;DHT22;52468;40.116;18.296;2023-07-29T08:35:06;34.50;36.80
51811;DHT22;52468;40.116;18.296;2023-07-29T08:37:34;34.80;36.30
51811;DHT22;52468;40.116;18.296;2023-07-29T08:40:02;35.00;35.70
51811;DHT22;52468;40.116;18.296;2023-07-29T08:42:32;35.10;34.80
51811;DHT22;52468;40.116;18.296;2023-07-29T08:45:07;35.40;34.40
51811;DHT22;52468;40.116;18.296;2023-07-29T08:47:39;35.40;34.10
51811;DHT22;52468;40.116;18.296;2023-07-29T08:50:07;35.40;34.00
51811;DHT22;52468;40.116;18.296;2023-07-29T08:52:36;35.30;34.10
51811;DHT22;52468;40.116;18.296;2023-07-29T08:55:04;35.10;33.50
51811;DHT22;52468;40.116;18.296;2023-07-29T08:57:33;35.10;33.60
51811;DHT22;52468;40.116;18.296;2023-07-29T09:00:01;35.10;33.90
51811;DHT22;52468;40.116;18.296;2023-07-29T09:02:31;35.10;34.60
51811;DHT22;52468;40.116;18.296;2023-07-29T09:04:59;35.30;34.50
51811;DHT22;52468;40.116;18.296;2023-07-29T09:07:29;35.50;34.50
51811;DHT22;52468;40.116;18.296;2023-07-29T09:09:57;35.50;33.90
51811;DHT22;52468;40.116;18.296;2023-07-29T09:12:24;35.70;33.80
51811;DHT22;52468;40.116;18.296;2023-07-29T09:14:52;35.60;33.70
51811;DHT22;52468;40.116;18.296;2023-07-29T09:17:21;35.40;33.30
51811;DHT22;52468;40.116;18.296;2023-07-29T09:19:50;35.30;33.40
51811;DHT22;52468;40.116;18.296;2023-07-29T09:22:22;35.50;33.10
51811;DHT22;52468;40.116;18.296;2023-07-29T09:24:50;35.70;32.70
51811;DHT22;52468;40.116;18.296;2023-07-29T09:27:26;35.90;32.10
51811;DHT22;52468;40.116;18.296;2023-07-29T09:29:55;36.00;31.90
51811;DHT22;52468;40.116;18.296;2023-07-29T09:32:24;36.20;31.50
51811;DHT22;52468;40.116;18.296;2023-07-29T09:34:52;36.00;31.50
51811;DHT22;52468;40.116;18.296;2023-07-29T09:37:23;36.20;31.30
51811;DHT22;52468;40.116;18.296;2023-07-29T09:39:52;36.50;30.90
51811;DHT22;52468;40.116;18.296;2023-07-29T09:42:20;36.80;30.30
51811;DHT22;52468;40.116;18.296;2023-07-29T09:44:49;37.00;29.60
51811;DHT22;52468;40.116;18.296;2023-07-29T09:47:21;37.00;29.40
51811;DHT22;52468;40.116;18.296;2023-07-29T09:49:50;37.10;29.00
51811;DHT22;52468;40.116;18.296;2023-07-29T09:52:19;37.10;29.20
51811;DHT22;52468;40.116;18.296;2023-07-29T09:54:48;37.00;29.20
51811;DHT22;52468;40.116;18.296;2023-07-29T09:57:17;36.90;29.10
51811;DHT22;52468;40.116;18.296;2023-07-29T09:59:56;36.90;29.60
51811;DHT22;52468;40.116;18.296;2023-07-29T10:02:24;36.70;29.60
51811;DHT22;52468;40.116;18.296;2023-07-29T10:04:55;36.60;29.70
51811;DHT22;52468;40.116;18.296;2023-07-29T10:07:24;36.50;28.80
51811;DHT22;52468;40.116;18.296;2023-07-29T10:09:52;36.50;28.70
51811;DHT22;52468;40.116;18.296;2023-07-29T10:12:22;36.50;28.70
51811;DHT22;52468;40.116;18.296;2023-07-29T10:14:52;36.60;28.60
51811;DHT22;52468;40.116;18.296;2023-07-29T10:17:21;36.70;28.90
51811;DHT22;52468;40.116;18.296;2023-07-29T10:19:50;37.00;28.50
51811;DHT22;52468;40.116;18.296;2023-07-29T10:22:20;37.30;28.20
51811;DHT22;52468;40.116;18.296;2023-07-29T10:24:49;37.60;27.70
51811;DHT22;52468;40.116;18.296;2023-07-29T10:27:19;37.70;27.00
51811;DHT22;52468;40.116;18.296;2023-07-29T10:29:49;37.50;27.30
51811;DHT22;52468;40.116;18.296;2023-07-29T10:32:20;37.40;27.30
51811;DHT22;52468;40.116;18.296;2023-07-29T10:34:49;37.30;27.40
51811;DHT22;52468;40.116;18.296;2023-07-29T10:37:18;37.20;27.50
51811;DHT22;52468;40.116;18.296;2023-07-29T10:39:55;37.10;27.50
51811;DHT22;52468;40.116;18.296;2023-07-29T10:42:23;37.00;27.70
51811;DHT22;52468;40.116;18.296;2023-07-29T10:44:54;36.80;27.80
51811;DHT22;52468;40.116;18.296;2023-07-29T10:47:29;37.00;27.50
51811;DHT22;52468;40.116;18.296;2023-07-29T10:49:58;37.00;27.40
51811;DHT22;52468;40.116;18.296;2023-07-29T10:55:03;37.20;27.00
51811;DHT22;52468;40.116;18.296;2023-07-29T10:57:49;37.20;27.40
51811;DHT22;52468;40.116;18.296;2023-07-29T11:00:19;37.50;27.00
51811;DHT22;52468;40.116;18.296;2023-07-29T11:03:00;37.50;27.10
51811;DHT22;52468;40.116;18.296;2023-07-29T11:05:44;37.50;27.00
51811;DHT22;52468;40.116;18.296;2023-07-29T11:11:18;37.60;27.20
51811;DHT22;52468;40.116;18.296;2023-07-29T11:13:46;37.70;26.80
51811;DHT22;52468;40.116;18.296;2023-07-29T11:16:16;37.60;26.70
51811;DHT22;52468;40.116;18.296;2023-07-29T11:18:46;37.70;26.50
51811;DHT22;52468;40.116;18.296;2023-07-29T11:21:14;37.50;26.80
51811;DHT22;52468;40.116;18.296;2023-07-29T11:23:42;37.30;27.10
51811;DHT22;52468;40.116;18.296;2023-07-29T11:26:10;37.50;27.10
51811;DHT22;52468;40.116;18.296;2023-07-29T11:28:39;37.70;26.80
51811;DHT22;52468;40.116;18.296;2023-07-29T11:31:07;37.90;26.60
51811;DHT22;52468;40.116;18.296;2023-07-29T11:33:38;38.20;26.40
51811;DHT22;52468;40.116;18.296;2023-07-29T11:36:16;38.20;26.20
51811;DHT22;52468;40.116;18.296;2023-07-29T11:38:45;38.20;26.00
51811;DHT22;52468;40.116;18.296;2023-07-29T11:41:12;38.40;25.90
51811;DHT22;52468;40.116;18.296;2023-07-29T11:43:46;38.70;25.60
51811;DHT22;52468;40.116;18.296;2023-07-29T11:46:14;38.90;25.30
51811;DHT22;52468;40.116;18.296;2023-07-29T11:48:44;38.90;25.10
51811;DHT22;52468;40.116;18.296;2023-07-29T11:51:12;38.70;25.30
51811;DHT22;52468;40.116;18.296;2023-07-29T11:53:42;38.80;25.20
51811;DHT22;52468;40.116;18.296;2023-07-29T11:56:10;38.90;25.10
51811;DHT22;52468;40.116;18.296;2023-07-29T11:58:40;39.00;24.90
51811;DHT22;52468;40.116;18.296;2023-07-29T12:01:09;39.10;24.80
51811;DHT22;52468;40.116;18.296;2023-07-29T12:03:37;38.80;25.20
51811;DHT22;52468;40.116;18.296;2023-07-29T12:06:06;38.70;25.50
51811;DHT22;52468;40.116;18.296;2023-07-29T12:08:34;38.60;25.80
51811;DHT22;52468;40.116;18.296;2023-07-29T12:11:02;38.60;26.00
51811;DHT22;52468;40.116;18.296;2023-07-29T12:13:31;38.50;26.00
51811;DHT22;52468;40.116;18.296;2023-07-29T12:16:03;38.50;26.30
51811;DHT22;52468;40.116;18.296;2023-07-29T12:18:32;38.30;26.00
51811;DHT22;52468;40.116;18.296;2023-07-29T12:21:00;38.40;25.80
51811;DHT22;52468;40.116;18.296;2023-07-29T12:23:29;38.40;25.90
51811;DHT22;52468;40.116;18.296;2023-07-29T12:25:59;38.40;25.90
51811;DHT22;52468;40.116;18.296;2023-07-29T12:28:27;38.30;25.90
51811;DHT22;52468;40.116;18.296;2023-07-29T12:30:56;38.20;26.00
51811;DHT22;52468;40.116;18.296;2023-07-29T12:33:31;38.40;26.00
51811;DHT22;52468;40.116;18.296;2023-07-29T12:35:59;38.50;26.20
51811;DHT22;52468;40.116;18.296;2023-07-29T12:38:28;38.70;26.00
51811;DHT22;52468;40.116;18.296;2023-07-29T12:40:56;39.10;25.60
51811;DHT22;52468;40.116;18.296;2023-07-29T12:43:25;39.30;25.10
51811;DHT22;52468;40.116;18.296;2023-07-29T12:45:53;39.80;25.00
51811;DHT22;52468;40.116;18.296;2023-07-29T12:48:21;40.10;24.30
51811;DHT22;52468;40.116;18.296;2023-07-29T12:50:49;40.30;24.00
51811;DHT22;52468;40.116;18.296;2023-07-29T12:53:17;40.10;24.00
51811;DHT22;52468;40.116;18.296;2023-07-29T12:55:45;39.50;24.50
51811;DHT22;52468;40.116;18.296;2023-07-29T12:58:13;38.90;26.50
51811;DHT22;52468;40.116;18.296;2023-07-29T13:00:41;38.70;26.00
51811;DHT22;52468;40.116;18.296;2023-07-29T13:03:09;38.60;26.00
51811;DHT22;52468;40.116;18.296;2023-07-29T13:05:37;38.60;26.20
51811;DHT22;52468;40.116;18.296;2023-07-29T13:08:04;38.60;26.50
51811;DHT22;52468;40.116;18.296;2023-07-29T13:10:32;40.10;25.50
51811;DHT22;52468;40.116;18.296;2023-07-29T13:13:00;41.90;23.40
51811;DHT22;52468;40.116;18.296;2023-07-29T13:17:56;44.70;21.00
51811;DHT22;52468;40.116;18.296;2023-07-29T13:20:24;44.80;21.90
51811;DHT22;52468;40.116;18.296;2023-07-29T13:22:51;44.40;22.00
51811;DHT22;52468;40.116;18.296;2023-07-29T13:25:19;43.50;22.90
51811;DHT22;52468;40.116;18.296;2023-07-29T13:27:47;43.70;22.90
51811;DHT22;52468;40.116;18.296;2023-07-29T13:30:15;44.10;22.50
51811;DHT22;52468;40.116;18.296;2023-07-29T13:32:43;45.40;21.50
51811;DHT22;52468;40.116;18.296;2023-07-29T13:35:11;46.20;20.90
51811;DHT22;52468;40.116;18.296;2023-07-29T13:37:39;47.40;20.10
51811;DHT22;52468;40.116;18.296;2023-07-29T13:40:07;48.90;19.10
51811;DHT22;52468;40.116;18.296;2023-07-29T13:42:35;50.00;18.20
51811;DHT22;52468;40.116;18.296;2023-07-29T13:45:03;50.80;17.70
51811;DHT22;52468;40.116;18.296;2023-07-29T13:47:31;51.40;17.00
51811;DHT22;52468;40.116;18.296;2023-07-29T13:50:00;51.70;16.80
51811;DHT22;52468;40.116;18.296;2023-07-29T13:52:28;52.10;16.60
51811;DHT22;52468;40.116;18.296;2023-07-29T13:54:56;52.50;16.10
51811;DHT22;52468;40.116;18.296;2023-07-29T13:57:24;51.70;15.90
51811;DHT22;52468;40.116;18.296;2023-07-29T13:59:52;50.00;16.90
51811;DHT22;52468;40.116;18.296;2023-07-29T14:02:19;48.80;17.70
51811;DHT22;52468;40.116;18.296;2023-07-29T14:04:47;48.50;17.80
51811;DHT22;52468;40.116;18.296;2023-07-29T14:07:15;48.70;17.80
51811;DHT22;52468;40.116;18.296;2023-07-29T14:09:43;49.30;17.30
51811;DHT22;52468;40.116;18.296;2023-07-29T14:12:11;47.60;18.30
51811;DHT22;52468;40.116;18.296;2023-07-29T14:14:41;45.60;19.60
51811;DHT22;52468;40.116;18.296;2023-07-29T14:17:09;44.50;20.60
51811;DHT22;52468;40.116;18.296;2023-07-29T14:19:37;46.00;19.60
51811;DHT22;52468;40.116;18.296;2023-07-29T14:22:05;46.80;18.80
51811;DHT22;52468;40.116;18.296;2023-07-29T14:24:33;46.00;19.30
51811;DHT22;52468;40.116;18.296;2023-07-29T14:27:01;45.80;19.50
51811;DHT22;52468;40.116;18.296;2023-07-29T14:29:29;46.10;19.30
51811;DHT22;52468;40.116;18.296;2023-07-29T14:31:57;47.50;18.40
51811;DHT22;52468;40.116;18.296;2023-07-29T14:34:24;48.90;17.50
51811;DHT22;52468;40.116;18.296;2023-07-29T14:36:52;49.40;17.20
51811;DHT22;52468;40.116;18.296;2023-07-29T14:39:20;49.50;17.10
51811;DHT22;52468;40.116;18.296;2023-07-29T14:41:48;49.20;17.20
51811;DHT22;52468;40.116;18.296;2023-07-29T14:44:16;48.80;17.50
51811;DHT22;52468;40.116;18.296;2023-07-29T14:46:44;48.70;17.60
51811;DHT22;52468;40.116;18.296;2023-07-29T14:49:12;49.30;17.30
51811;DHT22;52468;40.116;18.296;2023-07-29T14:51:40;49.60;17.00
51811;DHT22;52468;40.116;18.296;2023-07-29T14:54:07;49.90;16.90
51811;DHT22;52468;40.116;18.296;2023-07-29T14:56:36;49.20;17.30
51811;DHT22;52468;40.116;18.296;2023-07-29T14:59:03;48.20;17.90
51811;DHT22;52468;40.116;18.296;2023-07-29T15:01:31;47.90;18.00
51811;DHT22;52468;40.116;18.296;2023-07-29T15:03:59;48.30;17.90
51811;DHT22;52468;40.116;18.296;2023-07-29T15:06:27;49.20;17.20
51811;DHT22;52468;40.116;18.296;2023-07-29T15:08:55;48.90;17.30
51811;DHT22;52468;40.116;18.296;2023-07-29T15:11:23;48.70;17.20
51811;DHT22;52468;40.116;18.296;2023-07-29T15:13:51;48.30;17.20
51811;DHT22;52468;40.116;18.296;2023-07-29T15:16:19;48.20;17.30
51811;DHT22;52468;40.116;18.296;2023-07-29T15:18:46;48.30;17.40
51811;DHT22;52468;40.116;18.296;2023-07-29T15:21:14;47.90;17.70
51811;DHT22;52468;40.116;18.296;2023-07-29T15:23:42;48.30;17.60
51811;DHT22;52468;40.116;18.296;2023-07-29T15:26:10;48.10;17.80
51811;DHT22;52468;40.116;18.296;2023-07-29T15:28:38;48.30;17.70
51811;DHT22;52468;40.116;18.296;2023-07-29T15:31:06;48.20;17.70
51811;DHT22;52468;40.116;18.296;2023-07-29T15:33:34;47.70;17.50
51811;DHT22;52468;40.116;18.296;2023-07-29T15:36:02;47.60;18.00
51811;DHT22;52468;40.116;18.296;2023-07-29T15:38:30;47.00;18.60
51811;DHT22;52468;40.116;18.296;2023-07-29T15:40:59;47.00;18.60
51811;DHT22;52468;40.116;18.296;2023-07-29T15:43:27;46.90;18.60
51811;DHT22;52468;40.116;18.296;2023-07-29T15:45:55;46.70;18.40
51811;DHT22;52468;40.116;18.296;2023-07-29T15:48:24;46.20;18.60
51811;DHT22;52468;40.116;18.296;2023-07-29T15:50:52;45.60;18.90
51811;DHT22;52468;40.116;18.296;2023-07-29T15:53:20;44.80;19.50
51811;DHT22;52468;40.116;18.296;2023-07-29T15:55:49;44.80;19.50
51811;DHT22;52468;40.116;18.296;2023-07-29T15:58:17;44.90;19.30
51811;DHT22;52468;40.116;18.296;2023-07-29T16:00:45;44.80;19.50